createdAt,value
2018-11-02T00:02:39.159Z,99.90
2018-11-02T00:07:42.182Z,99.90
2018-11-02T00:12:45.166Z,99.90
2018-11-02T00:17:48.204Z,99.90
2018-11-02T00:22:51.493Z,99.90
2018-11-02T00:27:55.323Z,99.90
2018-11-02T00:32:58.355Z,99.90
2018-11-02T00:38:02.214Z,99.90
2018-11-02T00:43:05.644Z,99.90
2018-11-02T00:48:08.603Z,99.90
2018-11-02T00:53:11.728Z,99.90
2018-11-02T00:58:14.967Z,99.90
2018-11-02T01:03:17.942Z,99.90
2018-11-02T01:08:20.931Z,99.90
2018-11-02T01:13:23.870Z,99.90
2018-11-02T01:18:26.821Z,99.90
2018-11-02T01:23:29.788Z,99.90
2018-11-02T01:28:32.779Z,99.90
2018-11-02T01:33:37.117Z,99.90
2018-11-02T01:38:40.053Z,99.90
2018-11-02T01:43:43.027Z,99.90
2018-11-02T01:48:45.993Z,99.80
2018-11-02T01:53:48.968Z,99.90
2018-11-02T01:58:52.030Z,99.90
2018-11-02T02:03:55.003Z,99.90
2018-11-02T02:08:58.093Z,99.90
2018-11-02T02:14:02.183Z,99.90
2018-11-02T02:19:06.211Z,99.90
2018-11-02T02:24:09.192Z,99.90
2018-11-02T02:29:12.154Z,99.90
2018-11-02T02:34:15.129Z,99.90
2018-11-02T02:39:18.097Z,99.90
2018-11-02T02:44:21.063Z,99.90
2018-11-02T02:49:24.071Z,99.90
2018-11-02T02:54:27.045Z,99.90
2018-11-02T02:59:30.009Z,99.90
2018-11-02T03:04:32.952Z,99.90
2018-11-02T03:09:35.921Z,99.90
2018-11-02T03:14:38.892Z,99.90
2018-11-02T03:19:41.907Z,99.90
2018-11-02T03:24:44.915Z,99.90
2018-11-02T03:29:47.844Z,99.90
2018-11-02T03:34:50.844Z,99.90
2018-11-02T03:39:53.823Z,99.90
2018-11-02T03:44:56.849Z,99.90
2018-11-02T03:49:59.804Z,99.90
2018-11-02T03:55:04.461Z,99.90
2018-11-02T04:00:08.597Z,99.90
2018-11-02T04:05:11.569Z,99.90
2018-11-02T04:10:14.607Z,99.90
2018-11-02T04:15:17.822Z,99.90
2018-11-02T04:20:21.127Z,99.90
2018-11-02T04:25:24.124Z,99.90
2018-11-02T04:30:27.088Z,99.90
2018-11-02T04:35:30.017Z,99.90
2018-11-02T04:40:32.984Z,99.90
2018-11-02T04:45:38.379Z,99.90
2018-11-02T04:50:41.467Z,99.90
2018-11-02T04:55:44.471Z,99.90
2018-11-02T05:00:47.489Z,99.90
2018-11-02T05:05:50.457Z,99.90
2018-11-02T05:10:53.464Z,99.90
2018-11-02T05:15:56.444Z,99.90
2018-11-02T05:20:59.477Z,99.90
2018-11-02T05:26:05.360Z,99.90
2018-11-02T05:31:08.451Z,99.90
2018-11-02T05:36:11.393Z,99.90
2018-11-02T05:41:14.399Z,99.90
2018-11-02T05:46:17.505Z,99.90
2018-11-02T05:51:20.468Z,99.90
2018-11-02T05:56:23.580Z,99.90
2018-11-02T06:01:26.806Z,99.90
2018-11-02T06:06:29.670Z,99.90
2018-11-02T06:11:32.685Z,99.90
2018-11-02T06:16:35.636Z,99.90
2018-11-02T06:21:38.564Z,99.90
2018-11-02T06:26:41.536Z,99.90
2018-11-02T06:31:44.516Z,99.90
2018-11-02T06:36:47.502Z,99.90
2018-11-02T06:41:50.465Z,99.90
2018-11-02T06:46:53.385Z,99.90
2018-11-02T06:51:56.369Z,99.90
2018-11-02T06:56:59.350Z,99.90
2018-11-02T07:02:04.524Z,99.90
2018-11-02T07:07:07.584Z,99.90
2018-11-02T07:12:10.368Z,99.90
2018-11-02T07:17:13.429Z,95.20
2018-11-02T07:22:16.378Z,90.40
2018-11-02T07:27:19.286Z,88.40
2018-11-02T07:32:22.151Z,85.10
2018-11-02T07:37:24.987Z,84.10
2018-11-02T07:42:27.847Z,84.60
2018-11-02T07:47:30.801Z,85.70
2018-11-02T07:52:33.638Z,84.60
2018-11-02T07:57:36.687Z,84.90
2018-11-02T08:02:41.652Z,82.90
2018-11-02T08:07:44.612Z,83.10
2018-11-02T08:12:47.530Z,83.70
2018-11-02T08:17:50.543Z,84.30
2018-11-02T08:22:53.335Z,82.00
2018-11-02T08:27:56.272Z,86.40
2018-11-02T08:32:59.183Z,87.60
2018-11-02T08:38:04.358Z,83.00
2018-11-02T08:43:07.261Z,84.00
2018-11-02T08:48:10.164Z,86.00
2018-11-02T08:53:13.089Z,84.00
2018-11-02T08:58:16.110Z,84.90
2018-11-02T09:03:18.954Z,86.30
2018-11-02T09:08:21.826Z,85.90
2018-11-02T09:13:24.863Z,85.30
2018-11-02T09:18:28.053Z,85.90
2018-11-02T09:23:30.836Z,84.60
2018-11-02T09:28:33.822Z,85.80
2018-11-02T09:33:36.864Z,84.70
2018-11-02T09:38:39.873Z,83.90
2018-11-02T09:43:43.225Z,84.20
2018-11-02T09:48:46.260Z,84.20
2018-11-02T09:53:49.276Z,83.60
2018-11-02T09:58:52.473Z,83.20
2018-11-02T10:03:55.525Z,82.90
2018-11-02T10:08:58.526Z,82.90
2018-11-02T10:14:03.702Z,81.50
2018-11-02T10:19:07.129Z,81.00
2018-11-02T10:24:10.097Z,79.50
2018-11-02T10:29:13.210Z,78.30
2018-11-02T10:34:16.218Z,79.00
2018-11-02T10:39:19.404Z,79.20
2018-11-02T10:44:27.242Z,78.20
2018-11-02T10:49:30.259Z,77.70
2018-11-02T10:54:33.703Z,76.10
2018-11-02T10:59:37.533Z,75.30
2018-11-02T11:04:40.535Z,76.10
2018-11-02T11:09:43.554Z,74.80
2018-11-02T11:14:46.589Z,76.20
2018-11-02T11:19:49.621Z,76.50
2018-11-02T11:24:52.779Z,76.40
2018-11-02T11:29:55.759Z,75.80
2018-11-02T11:34:58.821Z,74.80
2018-11-02T11:40:03.871Z,75.30
2018-11-02T11:45:09.163Z,74.70
2018-11-02T11:50:19.051Z,72.40
2018-11-02T11:55:22.120Z,73.20
2018-11-02T12:00:25.160Z,73.40
2018-11-02T12:05:28.143Z,73.00
2018-11-02T12:10:31.167Z,70.50
2018-11-02T12:15:34.089Z,69.70
2018-11-02T12:20:37.136Z,68.70
2018-11-02T12:25:40.085Z,68.70
2018-11-02T12:30:43.094Z,66.90
2018-11-02T12:35:46.049Z,67.20
2018-11-02T12:40:49.099Z,65.50
2018-11-02T12:45:52.262Z,64.50
2018-11-02T12:50:55.270Z,63.90
2018-11-02T12:55:58.289Z,62.90
2018-11-02T13:01:02.052Z,60.30
2018-11-02T13:06:05.521Z,59.40
2018-11-02T13:11:08.486Z,59.70
2018-11-02T13:16:11.523Z,62.70
2018-11-02T13:21:14.532Z,63.70
2018-11-02T13:26:17.650Z,63.20
2018-11-02T13:31:20.583Z,61.90
2018-11-02T13:36:23.718Z,61.20
2018-11-02T13:41:26.640Z,60.60
2018-11-02T13:46:29.627Z,58.60
2018-11-02T13:51:32.606Z,59.40
2018-11-02T13:56:35.606Z,58.00
2018-11-02T14:01:38.609Z,60.20
2018-11-02T14:06:41.527Z,61.60
2018-11-02T14:11:44.683Z,62.00
2018-11-02T14:16:47.634Z,61.40
2018-11-02T14:21:50.644Z,63.30
2018-11-02T14:26:53.605Z,70.00
2018-11-02T14:31:56.594Z,71.40
2018-11-02T14:36:59.546Z,73.00
2018-11-02T14:42:03.345Z,73.60
2018-11-02T14:47:06.534Z,73.30
2018-11-02T14:52:09.555Z,73.80
2018-11-02T14:57:12.584Z,74.10
2018-11-02T15:02:15.629Z,73.40
2018-11-02T15:07:18.658Z,73.90
2018-11-02T15:12:21.649Z,73.50
2018-11-02T15:17:24.600Z,73.40
2018-11-02T15:22:27.585Z,74.90
2018-11-02T15:27:30.587Z,76.20
2018-11-02T15:32:33.526Z,77.50
2018-11-02T15:37:36.585Z,77.20
2018-11-02T15:42:39.596Z,77.90
2018-11-02T15:47:43.194Z,77.60
2018-11-02T15:52:46.136Z,77.50
2018-11-02T15:57:49.077Z,77.00
2018-11-02T16:02:52.214Z,77.30
2018-11-02T16:07:55.215Z,77.90
2018-11-02T16:12:58.102Z,76.80
2018-11-02T16:18:02.229Z,78.30
2018-11-02T16:23:05.855Z,78.40
2018-11-02T16:28:08.797Z,76.50
2018-11-02T16:33:11.786Z,77.90
2018-11-02T16:38:14.787Z,78.40
2018-11-02T16:43:17.803Z,79.80
2018-11-02T16:48:20.791Z,78.20
2018-11-02T16:53:23.813Z,78.60
2018-11-02T16:58:26.880Z,77.80
2018-11-02T17:03:29.930Z,73.80
2018-11-02T17:08:33.047Z,73.00
2018-11-02T17:13:36.029Z,71.70
2018-11-02T17:18:39.116Z,71.60
2018-11-02T17:23:42.098Z,73.10
2018-11-02T17:28:45.097Z,73.10
2018-11-02T17:33:48.114Z,74.70
2018-11-02T17:38:51.256Z,74.10
2018-11-02T17:43:54.364Z,74.70
2018-11-02T17:48:57.427Z,74.90
2018-11-02T17:54:03.175Z,73.60
2018-11-02T17:59:06.233Z,73.50
2018-11-02T18:04:09.336Z,72.70
2018-11-02T18:09:12.492Z,71.30
2018-11-02T18:14:15.611Z,72.70
2018-11-02T18:19:18.718Z,72.60
2018-11-02T18:24:21.850Z,73.00
2018-11-02T18:29:24.702Z,72.10
2018-11-02T18:34:27.725Z,70.80
2018-11-02T18:39:30.670Z,71.20
2018-11-02T18:44:33.805Z,71.40
2018-11-02T18:49:37.092Z,72.70
2018-11-02T18:54:40.154Z,72.40
2018-11-02T18:59:43.123Z,71.90
2018-11-02T19:04:46.145Z,71.90
2018-11-02T19:09:49.740Z,71.20
2018-11-02T19:14:52.687Z,70.40
2018-11-02T19:19:55.822Z,70.40
2018-11-02T19:24:58.777Z,70.30
2018-11-02T19:30:02.988Z,69.70
2018-11-02T19:35:07.877Z,69.10
2018-11-02T19:40:12.729Z,68.90
2018-11-02T19:45:16.433Z,69.00
2018-11-02T19:50:19.859Z,69.60
2018-11-02T19:55:22.990Z,69.70
2018-11-02T20:00:26.032Z,68.70
2018-11-02T20:05:29.443Z,68.70
2018-11-02T20:10:33.098Z,68.10
2018-11-02T20:15:36.212Z,68.40
2018-11-02T20:20:39.419Z,69.10
2018-11-02T20:25:43.508Z,67.90
2018-11-02T20:30:47.036Z,67.90
2018-11-02T20:35:50.727Z,68.20
2018-11-02T20:40:54.024Z,69.10
2018-11-02T20:45:57.176Z,70.50
2018-11-02T20:51:04.532Z,70.10
2018-11-02T20:56:08.221Z,71.10
2018-11-02T21:01:12.570Z,70.90
2018-11-02T21:06:16.834Z,69.90
2018-11-02T21:11:20.310Z,68.60
2018-11-02T21:16:23.375Z,69.40
2018-11-02T21:21:26.348Z,70.40
2018-11-02T21:26:29.488Z,71.00
2018-11-02T21:31:32.568Z,72.60
2018-11-02T21:36:35.633Z,73.10
2018-11-02T21:41:38.686Z,74.20
2018-11-02T21:46:41.840Z,74.70
2018-11-02T21:51:44.844Z,76.10
2018-11-02T21:56:47.930Z,72.80
2018-11-02T22:01:50.935Z,70.70
2018-11-02T22:06:54.150Z,69.50
2018-11-02T22:11:57.138Z,71.00
2018-11-02T22:17:00.097Z,64.50
2018-11-02T22:22:03.910Z,64.90
2018-11-02T22:27:06.989Z,67.40
2018-11-02T22:32:10.019Z,67.90
2018-11-02T22:37:12.934Z,69.30
2018-11-02T22:42:16.375Z,70.50
2018-11-02T22:47:19.376Z,67.80
2018-11-02T22:52:22.986Z,68.30
2018-11-02T22:57:25.984Z,69.40
2018-11-02T23:02:28.942Z,71.90
2018-11-02T23:07:31.906Z,73.50
2018-11-02T23:12:35.126Z,73.90
2018-11-02T23:17:38.666Z,71.70
2018-11-02T23:22:41.664Z,67.60
2018-11-02T23:27:44.847Z,69.90
2018-11-02T23:32:47.828Z,69.30
2018-11-02T23:37:50.819Z,68.80
2018-11-02T23:42:53.764Z,69.40
2018-11-02T23:48:03.198Z,70.50
2018-11-02T23:53:06.268Z,72.00
2018-11-02T23:58:09.331Z,71.70
